createdAt,value
2022-08-20T00:00:39.792Z,21.60
2022-08-20T00:03:10.448Z,21.77
2022-08-20T00:08:08.116Z,22.23
2022-08-20T00:10:37.418Z,21.52
2022-08-20T00:13:07.478Z,21.70
2022-08-20T00:15:36.179Z,22.85
2022-08-20T00:18:03.889Z,22.17
2022-08-20T00:20:33.705Z,22.92
2022-08-20T00:23:01.977Z,24.63
2022-08-20T00:25:29.583Z,22.98
2022-08-20T00:27:58.203Z,23.60
2022-08-20T00:30:27.128Z,23.38
2022-08-20T00:32:58.612Z,25.38
2022-08-20T00:35:28.633Z,25.60
2022-08-20T00:38:00.382Z,22.83
2022-08-20T00:40:50.202Z,25.77
2022-08-20T00:43:29.990Z,27.30
2022-08-20T00:45:57.842Z,24.95
2022-08-20T00:48:32.066Z,25.27
2022-08-20T00:51:21.050Z,27.83
2022-08-20T00:53:48.079Z,28.38
2022-08-20T00:56:15.133Z,27.85
2022-08-20T00:58:45.163Z,27.88
2022-08-20T01:01:13.108Z,29.95
2022-08-20T01:03:42.301Z,28.60
2022-08-20T01:06:11.708Z,28.02
2022-08-20T01:08:40.081Z,26.98
2022-08-20T01:11:12.593Z,28.38
2022-08-20T01:13:41.042Z,27.88
2022-08-20T01:16:17.610Z,27.90
2022-08-20T01:18:46.390Z,27.15
2022-08-20T01:21:13.499Z,27.15
2022-08-20T01:23:54.186Z,25.60
2022-08-20T01:29:02.407Z,26.38
2022-08-20T01:31:35.531Z,26.90
2022-08-20T01:34:07.884Z,27.05
2022-08-20T01:36:46.146Z,26.75
2022-08-20T01:39:17.558Z,26.20
2022-08-20T01:42:13.027Z,24.85
2022-08-20T01:44:42.493Z,26.80
2022-08-20T01:47:18.898Z,26.95
2022-08-20T01:49:52.137Z,28.27
2022-08-20T01:52:33.693Z,26.40
2022-08-20T01:55:01.453Z,26.73
2022-08-20T01:57:29.297Z,25.48
2022-08-20T01:59:56.653Z,26.52
2022-08-20T02:02:24.446Z,24.77
2022-08-20T02:04:51.270Z,26.02
2022-08-20T02:07:21.741Z,26.70
2022-08-20T02:09:50.224Z,27.50
2022-08-20T02:12:17.520Z,26.92
2022-08-20T02:14:51.395Z,25.52
2022-08-20T02:17:21.200Z,26.95
2022-08-20T02:19:58.768Z,25.30
2022-08-20T02:22:55.135Z,28.67
2022-08-20T02:25:24.746Z,25.92
2022-08-20T02:27:53.429Z,25.35
2022-08-20T02:30:30.451Z,24.85
2022-08-20T02:32:58.932Z,28.02
2022-08-20T02:35:26.856Z,25.33
2022-08-20T02:37:54.670Z,25.00
2022-08-20T02:40:27.360Z,25.67
2022-08-20T02:42:59.589Z,23.48
2022-08-20T02:45:27.282Z,25.30
2022-08-20T02:47:55.636Z,24.80
2022-08-20T02:50:24.313Z,25.67
2022-08-20T02:52:52.339Z,28.05
2022-08-20T02:55:25.938Z,27.20
2022-08-20T02:57:59.021Z,27.55
2022-08-20T03:00:27.553Z,27.10
2022-08-20T03:02:54.382Z,25.05
2022-08-20T03:05:21.363Z,26.60
2022-08-20T03:07:53.402Z,24.48
2022-08-20T03:10:30.685Z,25.55
2022-08-20T03:12:59.670Z,25.67
2022-08-20T03:15:26.842Z,26.52
2022-08-20T03:17:53.709Z,24.25
2022-08-20T03:20:23.900Z,24.13
2022-08-20T03:25:18.743Z,22.95
2022-08-20T03:27:47.153Z,23.65
2022-08-20T03:30:21.731Z,23.02
2022-08-20T03:32:48.461Z,23.35
2022-08-20T03:35:17.180Z,22.00
2022-08-20T03:37:48.179Z,22.13
2022-08-20T03:40:22.563Z,22.15
2022-08-20T03:42:49.532Z,21.67
2022-08-20T03:45:20.371Z,23.55
2022-08-20T03:47:48.080Z,23.80
2022-08-20T03:50:23.248Z,24.83
2022-08-20T03:52:55.267Z,24.42
2022-08-20T03:55:23.269Z,25.80
2022-08-20T03:57:54.088Z,25.33
2022-08-20T04:00:24.975Z,23.85
2022-08-20T04:02:51.903Z,24.77
2022-08-20T04:05:18.813Z,25.58
2022-08-20T04:07:45.625Z,24.30
2022-08-20T04:10:13.543Z,25.15
2022-08-20T04:12:40.846Z,23.85
2022-08-20T04:15:18.385Z,23.15
2022-08-20T04:17:48.749Z,20.98
2022-08-20T04:20:22.790Z,21.20
2022-08-20T04:22:58.478Z,20.75
2022-08-20T04:25:35.892Z,19.58
2022-08-20T04:28:05.555Z,17.42
2022-08-20T04:30:33.545Z,19.02
2022-08-20T04:33:01.150Z,17.42
2022-08-20T04:35:28.839Z,17.83
2022-08-20T04:38:08.584Z,20.30
2022-08-20T04:40:58.278Z,18.25
2022-08-20T04:43:34.166Z,16.35
2022-08-20T04:46:08.723Z,18.52
2022-08-20T04:48:39.259Z,17.08
2022-08-20T04:51:10.537Z,17.45
2022-08-20T04:53:37.325Z,18.67
2022-08-20T04:56:04.491Z,17.88
2022-08-20T04:58:37.600Z,17.83
2022-08-20T05:01:09.616Z,16.15
2022-08-20T05:03:38.641Z,17.98
2022-08-20T05:06:07.699Z,17.45
2022-08-20T05:08:35.941Z,18.35
2022-08-20T05:11:32.949Z,18.02
2022-08-20T05:13:52.931Z,18.20
2022-08-20T05:16:20.543Z,19.60
2022-08-20T05:18:52.230Z,19.83
2022-08-20T05:21:21.041Z,21.20
2022-08-20T05:23:49.316Z,20.85
2022-08-20T05:26:17.154Z,20.52
2022-08-20T05:28:57.900Z,20.83
2022-08-20T05:31:32.467Z,21.88
2022-08-20T05:34:02.113Z,22.00
2022-08-20T05:36:29.838Z,22.30
2022-08-20T05:38:56.901Z,21.35
2022-08-20T05:41:29.092Z,21.77
2022-08-20T05:44:01.023Z,21.90
2022-08-20T05:46:29.209Z,22.60
2022-08-20T05:48:56.239Z,22.45
2022-08-20T05:53:54.224Z,22.20
2022-08-20T05:56:26.747Z,24.13
2022-08-20T05:58:54.046Z,23.60
2022-08-20T06:01:21.173Z,21.85
2022-08-20T06:04:06.619Z,22.65
2022-08-20T06:06:44.813Z,23.75
2022-08-20T06:09:30.921Z,26.05
2022-08-20T06:12:06.058Z,24.92
2022-08-20T06:14:33.699Z,24.70
2022-08-20T06:17:13.524Z,22.50
2022-08-20T06:19:44.221Z,22.98
2022-08-20T06:22:20.632Z,25.05
2022-08-20T06:27:18.971Z,21.67
2022-08-20T06:29:45.840Z,22.95
2022-08-20T06:32:12.651Z,22.13
2022-08-20T06:34:50.335Z,21.73
2022-08-20T06:37:21.982Z,21.98
2022-08-20T06:39:49.600Z,22.02
2022-08-20T06:42:20.841Z,20.58
2022-08-20T06:44:50.222Z,21.73
2022-08-20T06:47:21.236Z,21.88
2022-08-20T06:49:48.841Z,23.05
2022-08-20T06:52:17.196Z,23.00
2022-08-20T06:54:45.434Z,20.23
2022-08-20T06:57:12.831Z,20.85
2022-08-20T06:59:39.825Z,19.58
2022-08-20T07:02:06.918Z,21.17
2022-08-20T07:04:34.069Z,20.17
2022-08-20T07:07:01.100Z,20.73
2022-08-20T07:09:28.279Z,20.77
2022-08-20T07:11:55.102Z,21.48
2022-08-20T07:14:22.277Z,22.90
2022-08-20T07:16:49.682Z,24.25
2022-08-20T07:19:16.765Z,22.52
2022-08-20T07:21:43.755Z,22.30
2022-08-20T07:24:10.570Z,22.77
2022-08-20T07:26:37.443Z,23.58
2022-08-20T07:29:04.411Z,23.20
2022-08-20T07:31:49.751Z,21.20
2022-08-20T07:34:16.839Z,21.25
2022-08-20T07:36:48.838Z,21.80
2022-08-20T07:39:15.917Z,21.92
2022-08-20T07:41:43.618Z,22.33
2022-08-20T07:44:21.571Z,23.88
2022-08-20T07:46:59.423Z,24.67
2022-08-20T07:49:26.801Z,23.55
2022-08-20T07:51:53.988Z,22.73
2022-08-20T07:54:20.941Z,21.30
2022-08-20T07:56:48.400Z,21.38
2022-08-20T07:59:16.597Z,20.10
2022-08-20T08:01:43.481Z,20.40
2022-08-20T08:04:10.323Z,19.75
2022-08-20T08:06:37.241Z,20.10
2022-08-20T08:09:13.343Z,18.77
2022-08-20T08:11:47.446Z,17.27
2022-08-20T08:14:23.439Z,18.25
2022-08-20T08:16:53.111Z,17.98
2022-08-20T08:19:20.367Z,17.77
2022-08-20T08:21:47.551Z,18.15
2022-08-20T08:24:20.277Z,18.75
2022-08-20T08:26:52.469Z,18.33
2022-08-20T08:29:19.369Z,18.25
2022-08-20T08:31:46.220Z,17.40
2022-08-20T08:34:13.231Z,16.65
2022-08-20T08:36:40.330Z,17.70
2022-08-20T08:39:07.312Z,19.88
2022-08-20T08:41:49.522Z,17.77
2022-08-20T08:44:24.115Z,18.20
2022-08-20T08:47:25.125Z,16.92
2022-08-20T08:49:51.977Z,17.70
2022-08-20T08:52:24.480Z,19.25
2022-08-20T08:54:54.799Z,20.83
2022-08-20T08:57:21.624Z,25.48
2022-08-20T09:00:04.158Z,23.48
2022-08-20T09:02:41.407Z,24.17
2022-08-20T09:05:15.945Z,22.02
2022-08-20T09:07:49.414Z,21.77
2022-08-20T09:10:22.921Z,21.85
2022-08-20T09:12:50.842Z,21.45
2022-08-20T09:15:25.315Z,21.35
2022-08-20T09:17:54.212Z,21.63
2022-08-20T09:20:22.945Z,20.10
2022-08-20T09:22:54.531Z,20.52
2022-08-20T09:25:21.672Z,20.60
2022-08-20T09:27:48.693Z,20.65
2022-08-20T09:30:18.538Z,25.58
2022-08-20T09:32:45.607Z,28.17
2022-08-20T09:35:13.312Z,31.48
2022-08-20T09:37:40.637Z,29.33
2022-08-20T09:40:09.193Z,29.77
2022-08-20T09:42:41.309Z,30.45
2022-08-20T09:45:10.854Z,30.10
2022-08-20T09:47:38.605Z,29.75
2022-08-20T09:50:09.352Z,30.52
2022-08-20T09:52:41.346Z,29.27
2022-08-20T09:55:26.348Z,30.15
2022-08-20T09:57:53.444Z,30.20
2022-08-20T10:00:20.667Z,32.90
2022-08-20T10:02:48.243Z,32.42
2022-08-20T10:05:15.127Z,34.60
2022-08-20T10:07:42.641Z,33.70
2022-08-20T10:10:14.093Z,31.58
2022-08-20T10:12:41.878Z,30.88
2022-08-20T10:15:09.681Z,30.38
2022-08-20T10:17:41.956Z,28.38
2022-08-20T10:20:11.846Z,27.55
2022-08-20T10:22:39.120Z,28.98
2022-08-20T10:25:06.931Z,26.48
2022-08-20T10:27:34.397Z,28.02
2022-08-20T10:30:03.925Z,27.88
2022-08-20T10:32:30.742Z,27.45
2022-08-20T10:34:58.217Z,27.83
2022-08-20T10:37:26.207Z,29.08
2022-08-20T10:39:54.018Z,29.48
2022-08-20T10:42:21.266Z,29.77
2022-08-20T10:44:48.238Z,30.50
2022-08-20T10:47:16.759Z,28.83
2022-08-20T10:49:43.767Z,28.25
2022-08-20T10:52:11.186Z,28.77
2022-08-20T10:54:42.217Z,29.85
2022-08-20T10:57:14.218Z,25.10
2022-08-20T10:59:43.372Z,26.55
2022-08-20T11:02:10.535Z,25.77
2022-08-20T11:04:37.963Z,26.10
2022-08-20T11:07:50.426Z,24.05
2022-08-20T11:10:24.976Z,23.75
2022-08-20T11:12:52.539Z,23.10
2022-08-20T11:15:19.619Z,22.35
2022-08-20T11:17:46.886Z,22.33
2022-08-20T11:20:18.043Z,21.35
2022-08-20T11:22:45.282Z,21.88
2022-08-20T11:25:12.482Z,18.92
2022-08-20T11:27:44.308Z,18.15
2022-08-20T11:30:17.715Z,18.55
2022-08-20T11:32:44.661Z,17.92
2022-08-20T11:35:40.623Z,19.10
2022-08-20T11:37:59.840Z,17.17
2022-08-20T11:40:28.450Z,17.45
2022-08-20T11:43:14.293Z,18.92
2022-08-20T11:45:43.779Z,19.42
2022-08-20T11:48:11.003Z,17.85
2022-08-20T11:50:38.126Z,17.48
2022-08-20T11:53:05.048Z,16.42
2022-08-20T11:55:32.644Z,17.15
2022-08-20T11:58:00.811Z,17.83
2022-08-20T12:00:34.173Z,18.05
2022-08-20T12:03:06.634Z,18.60
2022-08-20T12:05:37.142Z,19.83
2022-08-20T12:08:04.411Z,18.02
2022-08-20T12:10:32.207Z,17.48
2022-08-20T12:12:59.399Z,17.42
2022-08-20T12:15:27.620Z,17.23
2022-08-20T12:17:55.913Z,16.63
2022-08-20T12:20:24.244Z,16.42
2022-08-20T12:22:52.653Z,15.13
2022-08-20T12:25:19.887Z,17.08
2022-08-20T12:27:46.853Z,15.95
2022-08-20T12:30:21.386Z,15.95
2022-08-20T12:32:48.438Z,15.93
2022-08-20T12:35:17.175Z,16.75
2022-08-20T12:37:44.952Z,16.08
2022-08-20T12:40:15.242Z,16.27
2022-08-20T12:45:10.393Z,15.48
2022-08-20T12:47:40.101Z,15.18
2022-08-20T12:50:11.178Z,15.40
2022-08-20T12:52:38.905Z,17.20
2022-08-20T12:55:08.393Z,16.20
2022-08-20T12:57:47.889Z,15.97
2022-08-20T13:00:22.381Z,16.43
2022-08-20T13:02:52.486Z,14.82
2022-08-20T13:05:20.768Z,15.88
2022-08-20T13:07:52.893Z,14.60
2022-08-20T13:10:36.179Z,15.38
2022-08-20T13:13:08.167Z,15.75
2022-08-20T13:15:38.080Z,14.45
2022-08-20T13:18:11.096Z,14.38
2022-08-20T13:20:38.287Z,14.20
2022-08-20T13:23:05.553Z,13.95
2022-08-20T13:25:33.342Z,12.98
2022-08-20T13:28:04.596Z,12.90
2022-08-20T13:30:32.766Z,15.07
2022-08-20T13:32:59.608Z,10.75
2022-08-20T13:35:29.992Z,9.90
2022-08-20T13:40:23.781Z,11.73
2022-08-20T13:42:50.747Z,10.52
2022-08-20T13:45:17.699Z,11.45
2022-08-20T13:47:44.651Z,11.15
2022-08-20T13:50:13.915Z,9.93
2022-08-20T13:52:42.704Z,8.73
2022-08-20T13:55:22.188Z,8.30
2022-08-20T13:57:52.978Z,10.13
2022-08-20T14:00:32.215Z,11.40
2022-08-20T14:03:01.186Z,11.60
2022-08-20T14:05:34.743Z,11.32
2022-08-20T14:08:14.380Z,12.05
2022-08-20T14:10:42.923Z,12.00
2022-08-20T14:13:15.618Z,11.82
2022-08-20T14:15:49.019Z,11.30
2022-08-20T14:18:21.504Z,10.27
2022-08-20T14:20:52.255Z,10.57
2022-08-20T14:23:19.448Z,8.45
2022-08-20T14:25:54.223Z,8.43
2022-08-20T14:28:25.495Z,9.13
2022-08-20T14:31:02.154Z,9.00
2022-08-20T14:33:31.239Z,8.60
2022-08-20T14:36:00.656Z,7.90
2022-08-20T14:38:29.784Z,8.18
2022-08-20T14:40:57.319Z,7.93
2022-08-20T14:43:30.330Z,7.95
2022-08-20T14:47:15.240Z,8.18
2022-08-20T14:49:44.447Z,7.43
2022-08-20T14:52:16.867Z,7.57
2022-08-20T14:54:46.995Z,7.60
2022-08-20T14:57:23.012Z,7.10
2022-08-20T14:59:56.275Z,7.63
2022-08-20T15:02:23.370Z,6.80
2022-08-20T15:04:55.647Z,6.65
2022-08-20T15:07:40.444Z,7.30
2022-08-20T15:10:12.879Z,7.63
2022-08-20T15:12:43.433Z,7.75
2022-08-20T15:15:22.384Z,7.72
2022-08-20T15:17:59.383Z,7.75
2022-08-20T15:20:49.639Z,7.72
2022-08-20T15:23:17.969Z,6.65
2022-08-20T15:25:50.278Z,6.85
2022-08-20T15:28:19.157Z,7.90
2022-08-20T15:30:49.959Z,6.35
2022-08-20T15:33:17.362Z,7.25
2022-08-20T15:35:49.408Z,7.00
2022-08-20T15:38:16.699Z,7.75
2022-08-20T15:40:46.116Z,6.82
2022-08-20T15:43:15.910Z,6.43
2022-08-20T15:45:46.573Z,6.68
2022-08-20T15:50:57.621Z,8.57
2022-08-20T15:53:31.561Z,7.40
2022-08-20T15:56:14.458Z,7.22
2022-08-20T15:59:00.608Z,6.97
2022-08-20T16:04:53.205Z,12.40
2022-08-20T16:07:33.371Z,7.80
2022-08-20T16:10:25.316Z,7.72
2022-08-20T16:12:58.426Z,7.50
2022-08-20T16:15:35.250Z,6.85
2022-08-20T16:18:29.469Z,7.00
2022-08-20T16:21:03.854Z,7.00
2022-08-20T16:23:41.475Z,6.72
2022-08-20T16:26:28.866Z,6.75
2022-08-20T16:29:11.859Z,7.00
2022-08-20T16:32:14.174Z,7.55
2022-08-20T16:35:08.041Z,8.48
2022-08-20T16:38:02.960Z,7.13
2022-08-20T16:40:49.506Z,7.50
2022-08-20T16:43:25.393Z,6.88
2022-08-20T16:46:02.942Z,6.63
2022-08-20T16:48:52.715Z,7.97
2022-08-20T16:51:55.434Z,7.25
2022-08-20T16:54:28.253Z,7.57
2022-08-20T16:57:05.844Z,7.60
2022-08-20T16:59:39.381Z,8.40
2022-08-20T17:02:34.846Z,7.93
2022-08-20T17:05:06.657Z,8.45
2022-08-20T17:07:52.091Z,8.05
2022-08-20T17:11:02.963Z,8.23
2022-08-20T17:13:40.577Z,7.40
2022-08-20T17:16:20.741Z,7.95
2022-08-20T17:18:52.220Z,8.93
2022-08-20T17:21:32.577Z,8.95
2022-08-20T17:24:03.713Z,8.35
2022-08-20T17:26:54.023Z,7.38
2022-08-20T17:29:32.215Z,8.45
2022-08-20T17:32:08.442Z,8.50
2022-08-20T17:34:52.050Z,9.27
2022-08-20T17:37:32.671Z,8.55
2022-08-20T17:40:35.262Z,7.85
2022-08-20T17:43:10.146Z,8.23
2022-08-20T17:45:45.714Z,6.80
2022-08-20T17:48:22.692Z,7.28
2022-08-20T17:50:54.013Z,7.22
2022-08-20T17:53:30.001Z,7.05
2022-08-20T17:56:32.920Z,6.85
2022-08-20T17:59:11.954Z,7.57
2022-08-20T18:01:41.062Z,7.45
2022-08-20T18:04:17.173Z,7.45
2022-08-20T18:07:05.213Z,7.30
2022-08-20T18:10:24.108Z,7.88
2022-08-20T18:13:02.242Z,7.82
2022-08-20T18:15:39.440Z,9.10
2022-08-20T18:18:31.329Z,7.63
2022-08-20T18:21:19.611Z,8.02
2022-08-20T18:24:08.673Z,7.70
2022-08-20T18:27:03.636Z,7.65
2022-08-20T18:29:42.166Z,7.63
2022-08-20T18:32:39.856Z,7.72
2022-08-20T18:35:15.397Z,7.63
2022-08-20T18:37:43.458Z,7.90
2022-08-20T18:40:28.510Z,8.25
2022-08-20T18:43:02.215Z,8.52
2022-08-20T18:45:36.732Z,8.65
2022-08-20T18:48:08.274Z,8.18
2022-08-20T18:50:55.015Z,7.57
2022-08-20T18:53:39.502Z,8.30
2022-08-20T18:56:12.842Z,7.55
2022-08-20T18:59:23.223Z,8.82
2022-08-20T19:01:52.076Z,8.88
2022-08-20T19:04:32.160Z,9.50
2022-08-20T19:07:06.684Z,9.00
2022-08-20T19:10:30.580Z,10.63
2022-08-20T19:13:17.764Z,8.70
2022-08-20T19:16:07.532Z,8.07
2022-08-20T19:18:45.360Z,9.03
2022-08-20T19:21:25.593Z,9.57
2022-08-20T19:23:57.828Z,9.05
2022-08-20T19:26:59.175Z,8.90
2022-08-20T19:29:43.117Z,8.40
2022-08-20T19:32:28.956Z,8.35
2022-08-20T19:35:21.555Z,9.10
2022-08-20T19:37:50.516Z,8.80
2022-08-20T19:40:28.285Z,10.18
2022-08-20T19:43:02.348Z,11.30
2022-08-20T19:45:49.356Z,10.45
2022-08-20T19:49:05.986Z,8.45
2022-08-20T19:52:25.257Z,8.88
2022-08-20T19:55:18.416Z,9.32
2022-08-20T19:58:26.054Z,7.93
2022-08-20T20:00:58.764Z,9.00
2022-08-20T20:03:38.110Z,7.65
2022-08-20T20:06:21.308Z,8.68
2022-08-20T20:09:28.469Z,9.32
2022-08-20T20:12:04.343Z,14.32
2022-08-20T20:14:37.031Z,12.60
2022-08-20T20:17:15.026Z,17.95
2022-08-20T20:19:58.350Z,18.02
2022-08-20T20:22:51.055Z,13.75
2022-08-20T20:28:29.403Z,10.30
2022-08-20T20:31:12.233Z,9.65
2022-08-20T20:33:44.783Z,9.18
2022-08-20T20:36:34.558Z,9.27
2022-08-20T20:39:18.354Z,10.07
2022-08-20T20:44:47.948Z,9.88
2022-08-20T20:47:30.456Z,9.15
2022-08-20T20:50:28.851Z,9.18
2022-08-20T20:53:07.287Z,8.55
2022-08-20T20:55:46.667Z,8.38
2022-08-20T20:58:28.999Z,8.77
2022-08-20T21:03:50.901Z,8.75
2022-08-20T21:09:10.974Z,9.00
2022-08-20T21:11:39.610Z,8.77
2022-08-20T21:14:15.943Z,8.45
2022-08-20T21:16:49.777Z,8.68
2022-08-20T21:19:25.481Z,10.75
2022-08-20T21:21:55.028Z,9.57
2022-08-20T21:24:29.424Z,9.45
2022-08-20T21:27:00.210Z,8.23
2022-08-20T21:29:33.176Z,9.50
2022-08-20T21:32:02.903Z,9.00
2022-08-20T21:34:35.399Z,9.48
2022-08-20T21:37:03.214Z,9.25
2022-08-20T21:39:35.023Z,9.40
2022-08-20T21:42:28.288Z,9.68
2022-08-20T21:45:06.104Z,9.50
2022-08-20T21:47:58.932Z,9.02
2022-08-20T21:50:43.832Z,9.27
2022-08-20T21:53:12.529Z,9.30
2022-08-20T21:55:41.396Z,8.27
2022-08-20T21:58:11.367Z,10.18
2022-08-20T22:01:02.917Z,9.57
2022-08-20T22:03:33.346Z,9.18
2022-08-20T22:06:03.680Z,9.10
2022-08-20T22:08:38.800Z,8.60
2022-08-20T22:11:12.274Z,9.05
2022-08-20T22:13:45.006Z,8.20
2022-08-20T22:16:17.314Z,8.25
2022-08-20T22:19:05.951Z,8.90
2022-08-20T22:21:54.044Z,8.60
2022-08-20T22:24:24.727Z,8.27
2022-08-20T22:27:04.291Z,9.32
2022-08-20T22:29:38.871Z,8.73
2022-08-20T22:32:17.422Z,9.18
2022-08-20T22:34:47.318Z,8.32
2022-08-20T22:37:17.573Z,8.50
2022-08-20T22:39:46.238Z,9.20
2022-08-20T22:42:15.666Z,8.52
2022-08-20T22:44:43.898Z,9.18
2022-08-20T22:47:15.238Z,8.63
2022-08-20T22:49:44.310Z,8.77
2022-08-20T22:52:13.294Z,8.75
2022-08-20T22:54:46.316Z,9.48
2022-08-20T22:57:16.480Z,9.07
2022-08-20T22:59:53.288Z,9.57
2022-08-20T23:02:28.057Z,8.90
2022-08-20T23:04:57.105Z,9.18
2022-08-20T23:07:24.669Z,10.10
2022-08-20T23:10:04.252Z,9.35
2022-08-20T23:15:07.559Z,9.65
2022-08-20T23:17:41.629Z,9.33
2022-08-20T23:20:13.066Z,9.45
2022-08-20T23:22:41.856Z,9.82
2022-08-20T23:25:14.547Z,9.15
2022-08-20T23:27:50.238Z,9.10
2022-08-20T23:30:23.585Z,8.68
2022-08-20T23:32:52.448Z,9.10
2022-08-20T23:35:21.337Z,9.43
2022-08-20T23:37:55.146Z,9.43
2022-08-20T23:40:28.064Z,8.52
2022-08-20T23:42:59.442Z,8.93
2022-08-20T23:45:51.590Z,9.25
2022-08-20T23:48:25.536Z,8.85
2022-08-20T23:50:59.494Z,8.80
2022-08-20T23:53:26.921Z,9.00
2022-08-20T23:55:58.988Z,9.13
2022-08-20T23:58:26.680Z,8.80
